PWSweather.com
Personal Weather Stations
Station Observations
SEVANL01
SevillaES 41004

SevillaES 41004

Lat: 37.383633, Lon: -5.985787

Elevation: 19.685

Station Type: Davis Vantage Pro2

www.tiempoensevilla.es

High Low Average
Temperature 91.2°F32.9°C 71.6°F22.0°C 79.4°F26.3°C
Dew Point 65.6°F18.7°C 58.1°F14.5°C 62.1°F16.7°C
Winds 9.9 mph 15.9 kmh 0.6 mph 1.0 kmh 4.0 mph SSW6.4 kmh SSW
Wind Gusts 19.0 mph30.6 kmh 3.0 mph4.8 kmh 9.0 mph14.5 kmh
Humidity 75% 34% 58%
Pressure 30.00 in1015.9 mb 29.90 in1012.5 mb -
Precipitation 0.02 in0.5 mm - -
Hour Temp Dew Point Humidity Winds Wind Gusts Pressure Precip Precip Rate Daily Precip Total
12:00 AM 73.9°F23.3°C 62.2°F16.8°C 67% 4.6 mph SW7.4 kmh SW 9.0 mph14.5 kmh 29.98 in1015.2 mb 0.00 in0.0 mm 0.00 in0.0 mm 0.00 in0.0 mm
12:20 AM 73.5°F23.1°C 62.3°F16.8°C 68% 5.2 mph WSW8.4 kmh WSW 12.0 mph19.3 kmh 29.98 in1015.2 mb 0.00 in0.0 mm 0.00 in0.0 mm 0.00 in0.0 mm
12:40 AM 73.4°F23.0°C 62.2°F16.8°C 68% 5.4 mph SW8.7 kmh SW 12.0 mph19.3 kmh 29.99 in1015.6 mb 0.00 in0.0 mm 0.00 in0.0 mm 0.00 in0.0 mm
01:00 AM 72.7°F22.6°C 62.3°F16.8°C 70% 4.0 mph SW6.4 kmh SW 12.0 mph19.3 kmh 30.00 in1015.9 mb 0.00 in0.0 mm 0.00 in0.0 mm 0.00 in0.0 mm
01:20 AM 72.4°F22.4°C 62.5°F16.9°C 71% 3.1 mph SW5.0 kmh SW 9.0 mph14.5 kmh 30.00 in1015.9 mb 0.00 in0.0 mm 0.00 in0.0 mm 0.00 in0.0 mm
01:40 AM 72.4°F22.4°C 62.5°F16.9°C 71% 3.0 mph SSW4.8 kmh SSW 6.0 mph9.7 kmh 30.00 in1015.9 mb 0.00 in0.0 mm 0.00 in0.0 mm 0.00 in0.0 mm
02:00 AM 72.7°F22.6°C 62.3°F16.8°C 70% 2.0 mph NNE3.2 kmh NNE 5.0 mph8.0 kmh 29.96 in1014.6 mb 0.00 in0.0 mm 0.00 in0.0 mm 0.00 in0.0 mm
02:20 AM 73.2°F22.9°C 63.2°F17.3°C 71% 3.7 mph NNW6.0 kmh NNW 13.0 mph20.9 kmh 29.96 in1014.6 mb 0.00 in0.0 mm 0.00 in0.0 mm 0.00 in0.0 mm
02:40 AM 71.9°F22.2°C 63.5°F17.5°C 75% 6.1 mph NW9.8 kmh NW 12.0 mph19.3 kmh 29.96 in1014.6 mb 0.02 in0.5 mm 0.06 in1.5 mm 0.02 in0.5 mm
03:00 AM 71.6°F22.0°C 62.5°F16.9°C 73% 2.6 mph NNE4.2 kmh NNE 12.0 mph19.3 kmh 29.96 in1014.6 mb 0.02 in0.5 mm 0.00 in0.0 mm 0.02 in0.5 mm
03:20 AM 71.9°F22.2°C 63.2°F17.3°C 74% 1.9 mph E3.1 kmh E 4.0 mph6.4 kmh 29.96 in1014.6 mb 0.02 in0.5 mm 0.00 in0.0 mm 0.02 in0.5 mm
03:40 AM 72.1°F22.3°C 63.7°F17.6°C 75% 2.0 mph ENE3.2 kmh ENE 5.0 mph8.0 kmh 29.96 in1014.6 mb 0.00 in0.0 mm 0.00 in0.0 mm 0.02 in0.5 mm
04:00 AM 72.5°F22.5°C 64.1°F17.8°C 75% 1.0 mph NE1.6 kmh NE 3.0 mph4.8 kmh 29.95 in1014.2 mb 0.00 in0.0 mm 0.00 in0.0 mm 0.02 in0.5 mm
04:20 AM 72.7°F22.6°C 63.5°F17.5°C 73% 1.7 mph SE2.7 kmh SE 7.0 mph11.3 kmh 29.96 in1014.6 mb 0.00 in0.0 mm 0.00 in0.0 mm 0.02 in0.5 mm
04:40 AM 73.1°F22.8°C 63.9°F17.7°C 73% 0.6 mph S1.0 kmh S 5.0 mph8.0 kmh 29.97 in1014.9 mb 0.00 in0.0 mm 0.00 in0.0 mm 0.02 in0.5 mm
05:00 AM 72.9°F22.7°C 64.1°F17.8°C 74% 1.5 mph ESE2.4 kmh ESE 7.0 mph11.3 kmh 29.97 in1014.9 mb 0.00 in0.0 mm 0.00 in0.0 mm 0.02 in0.5 mm
05:20 AM 73.1°F22.8°C 64.3°F17.9°C 74% 2.0 mph SSE3.2 kmh SSE 4.0 mph6.4 kmh 29.97 in1014.9 mb 0.00 in0.0 mm 0.00 in0.0 mm 0.02 in0.5 mm
05:40 AM 73.1°F22.8°C 64.7°F18.2°C 75% 1.2 mph SSW1.9 kmh SSW 5.0 mph8.0 kmh 29.98 in1015.2 mb 0.00 in0.0 mm 0.00 in0.0 mm 0.02 in0.5 mm
06:00 AM 72.7°F22.6°C 63.9°F17.7°C 74% 2.4 mph NE3.9 kmh NE 6.0 mph9.7 kmh 29.98 in1015.2 mb 0.00 in0.0 mm 0.00 in0.0 mm 0.02 in0.5 mm
06:20 AM 72.8°F22.7°C 64.4°F18.0°C 75% 2.0 mph NE3.2 kmh NE 8.0 mph12.9 kmh 29.97 in1014.9 mb 0.00 in0.0 mm 0.00 in0.0 mm 0.02 in0.5 mm
06:40 AM 73.1°F22.8°C 64.3°F17.9°C 74% 7.0 mph N11.3 kmh N 10.0 mph16.1 kmh 29.95 in1014.2 mb 0.00 in0.0 mm 0.00 in0.0 mm 0.02 in0.5 mm
07:00 AM 72.8°F22.7°C 64.0°F17.8°C 74% 4.9 mph N7.9 kmh N 10.0 mph16.1 kmh 29.97 in1014.9 mb 0.00 in0.0 mm 0.00 in0.0 mm 0.02 in0.5 mm
07:20 AM 72.3°F22.4°C 63.9°F17.7°C 75% 2.3 mph NNE3.7 kmh NNE 7.0 mph11.3 kmh 29.96 in1014.6 mb 0.00 in0.0 mm 0.00 in0.0 mm 0.02 in0.5 mm
07:40 AM 72.2°F22.3°C 63.8°F17.7°C 75% 3.9 mph E6.3 kmh E 8.0 mph12.9 kmh 29.96 in1014.6 mb 0.00 in0.0 mm 0.00 in0.0 mm 0.02 in0.5 mm
08:00 AM 72.4°F22.4°C 63.3°F17.4°C 73% 1.7 mph N2.7 kmh N 3.0 mph4.8 kmh 29.96 in1014.6 mb 0.00 in0.0 mm 0.00 in0.0 mm 0.02 in0.5 mm
08:20 AM 73.2°F22.9°C 63.6°F17.6°C 72% 1.0 mph WNW1.6 kmh WNW 4.0 mph6.4 kmh 29.97 in1014.9 mb 0.00 in0.0 mm 0.00 in0.0 mm 0.02 in0.5 mm
08:40 AM 73.9°F23.3°C 63.9°F17.7°C 71% 2.0 mph SSW3.2 kmh SSW 4.0 mph6.4 kmh 29.97 in1014.9 mb 0.00 in0.0 mm 0.00 in0.0 mm 0.02 in0.5 mm
09:00 AM 74.3°F23.5°C 64.7°F18.2°C 72% 1.0 mph SW1.6 kmh SW 5.0 mph8.0 kmh 29.99 in1015.6 mb 0.00 in0.0 mm 0.00 in0.0 mm 0.02 in0.5 mm
09:20 AM 74.8°F23.8°C 65.2°F18.4°C 72% 2.2 mph SSW3.5 kmh SSW 5.0 mph8.0 kmh 29.99 in1015.6 mb 0.00 in0.0 mm 0.00 in0.0 mm 0.02 in0.5 mm
09:40 AM 75.4°F24.1°C 65.3°F18.5°C 71% 2.0 mph WSW3.2 kmh WSW 6.0 mph9.7 kmh 29.99 in1015.6 mb 0.00 in0.0 mm 0.00 in0.0 mm 0.02 in0.5 mm
10:00 AM 76.5°F24.7°C 62.5°F16.9°C 62% 1.5 mph NNE2.4 kmh NNE 7.0 mph11.3 kmh 29.98 in1015.2 mb 0.00 in0.0 mm 0.00 in0.0 mm 0.02 in0.5 mm
10:20 AM 77.8°F25.4°C 61.8°F16.6°C 58% 3.0 mph N4.8 kmh N 7.0 mph11.3 kmh 29.98 in1015.2 mb 0.00 in0.0 mm 0.00 in0.0 mm 0.02 in0.5 mm
10:40 AM 79.1°F26.2°C 60.0°F15.6°C 52% 0.6 mph WNW1.0 kmh WNW 4.0 mph6.4 kmh 29.99 in1015.6 mb 0.00 in0.0 mm 0.00 in0.0 mm 0.02 in0.5 mm
11:00 AM 81.0°F27.2°C 61.2°F16.2°C 51% 1.7 mph E2.7 kmh E 8.0 mph12.9 kmh 29.99 in1015.6 mb 0.00 in0.0 mm 0.00 in0.0 mm 0.02 in0.5 mm
11:20 AM 81.7°F27.6°C 60.1°F15.6°C 48% 2.4 mph SE3.9 kmh SE 6.0 mph9.7 kmh 29.99 in1015.6 mb 0.00 in0.0 mm 0.00 in0.0 mm 0.02 in0.5 mm
11:40 AM 82.5°F28.1°C 60.8°F16.0°C 48% 1.4 mph SSW2.3 kmh SSW 7.0 mph11.3 kmh 29.99 in1015.6 mb 0.00 in0.0 mm 0.00 in0.0 mm 0.02 in0.5 mm
12:00 PM 82.4°F28.0°C 60.7°F15.9°C 48% 2.4 mph W3.9 kmh W 5.0 mph8.0 kmh 29.98 in1015.2 mb 0.00 in0.0 mm 0.00 in0.0 mm 0.02 in0.5 mm
12:20 PM 83.4°F28.6°C 60.4°F15.8°C 46% 2.9 mph WNW4.7 kmh WNW 6.0 mph9.7 kmh 29.98 in1015.2 mb 0.00 in0.0 mm 0.00 in0.0 mm 0.02 in0.5 mm
12:40 PM 84.5°F29.2°C 60.2°F15.7°C 44% 2.5 mph NNE4.0 kmh NNE 8.0 mph12.9 kmh 29.98 in1015.2 mb 0.00 in0.0 mm 0.00 in0.0 mm 0.02 in0.5 mm
01:00 PM 84.9°F29.4°C 59.9°F15.5°C 43% 2.8 mph ENE4.5 kmh ENE 8.0 mph12.9 kmh 29.97 in1014.9 mb 0.00 in0.0 mm 0.00 in0.0 mm 0.02 in0.5 mm
01:20 PM 85.3°F29.6°C 59.6°F15.3°C 42% 2.2 mph W3.5 kmh W 6.0 mph9.7 kmh 29.97 in1014.9 mb 0.00 in0.0 mm 0.00 in0.0 mm 0.02 in0.5 mm
01:40 PM 87.5°F30.8°C 60.2°F15.7°C 40% 1.5 mph WNW2.4 kmh WNW 6.0 mph9.7 kmh 29.96 in1014.6 mb 0.00 in0.0 mm 0.00 in0.0 mm 0.02 in0.5 mm
02:00 PM 87.6°F30.9°C 58.1°F14.5°C 37% 2.3 mph WSW3.7 kmh WSW 8.0 mph12.9 kmh 29.96 in1014.6 mb 0.00 in0.0 mm 0.00 in0.0 mm 0.02 in0.5 mm
02:20 PM 88.1°F31.2°C 58.6°F14.8°C 37% 1.8 mph NW2.9 kmh NW 8.0 mph12.9 kmh 29.95 in1014.2 mb 0.00 in0.0 mm 0.00 in0.0 mm 0.02 in0.5 mm
02:40 PM 88.9°F31.6°C 60.7°F15.9°C 39% 2.4 mph WSW3.9 kmh WSW 6.0 mph9.7 kmh 29.95 in1014.2 mb 0.00 in0.0 mm 0.00 in0.0 mm 0.02 in0.5 mm
03:00 PM 88.1°F31.2°C 60.0°F15.6°C 39% 3.0 mph SSW4.8 kmh SSW 7.0 mph11.3 kmh 29.94 in1013.9 mb 0.00 in0.0 mm 0.00 in0.0 mm 0.02 in0.5 mm
03:20 PM 89.0°F31.7°C 59.3°F15.2°C 37% 2.9 mph WSW4.7 kmh WSW 5.0 mph8.0 kmh 29.93 in1013.5 mb 0.00 in0.0 mm 0.00 in0.0 mm 0.02 in0.5 mm
03:40 PM 91.0°F32.8°C 59.5°F15.3°C 35% 1.1 mph NNW1.8 kmh NNW 9.0 mph14.5 kmh 29.93 in1013.5 mb 0.00 in0.0 mm 0.00 in0.0 mm 0.02 in0.5 mm
04:00 PM 91.2°F32.9°C 58.9°F14.9°C 34% 2.6 mph SW4.2 kmh SW 9.0 mph14.5 kmh 29.93 in1013.5 mb 0.00 in0.0 mm 0.00 in0.0 mm 0.02 in0.5 mm
04:20 PM 90.6°F32.6°C 58.4°F14.7°C 34% 3.6 mph NW5.8 kmh NW 10.0 mph16.1 kmh 29.92 in1013.2 mb 0.00 in0.0 mm 0.00 in0.0 mm 0.02 in0.5 mm
04:40 PM 91.2°F32.9°C 59.7°F15.4°C 35% 3.6 mph NW5.8 kmh NW 8.0 mph12.9 kmh 29.92 in1013.2 mb 0.00 in0.0 mm 0.00 in0.0 mm 0.02 in0.5 mm
05:00 PM 91.2°F32.9°C 60.5°F15.8°C 36% 3.8 mph WSW6.1 kmh WSW 10.0 mph16.1 kmh 29.91 in1012.9 mb 0.00 in0.0 mm 0.00 in0.0 mm 0.02 in0.5 mm
05:20 PM 91.2°F32.9°C 65.6°F18.7°C 43% 3.9 mph SW6.3 kmh SW 11.0 mph17.7 kmh 29.91 in1012.9 mb 0.00 in0.0 mm 0.00 in0.0 mm 0.02 in0.5 mm
05:40 PM 90.2°F32.3°C 65.3°F18.5°C 44% 6.2 mph SW10.0 kmh SW 14.0 mph22.5 kmh 29.90 in1012.5 mb 0.00 in0.0 mm 0.00 in0.0 mm 0.02 in0.5 mm
06:00 PM 89.9°F32.2°C 63.7°F17.6°C 42% 6.4 mph SW10.3 kmh SW 15.0 mph24.1 kmh 29.90 in1012.5 mb 0.00 in0.0 mm 0.00 in0.0 mm 0.02 in0.5 mm
06:20 PM 88.8°F31.6°C 64.1°F17.8°C 44% 7.1 mph SW11.4 kmh SW 15.0 mph24.1 kmh 29.90 in1012.5 mb 0.00 in0.0 mm 0.00 in0.0 mm 0.02 in0.5 mm
06:40 PM 87.6°F30.9°C 63.6°F17.6°C 45% 8.0 mph SW12.9 kmh SW 16.0 mph25.7 kmh 29.91 in1012.9 mb 0.00 in0.0 mm 0.00 in0.0 mm 0.02 in0.5 mm
07:00 PM 86.6°F30.3°C 62.7°F17.1°C 45% 7.3 mph SW11.7 kmh SW 18.0 mph29.0 kmh 29.91 in1012.9 mb 0.00 in0.0 mm 0.00 in0.0 mm 0.02 in0.5 mm
07:20 PM 85.4°F29.7°C 61.0°F16.1°C 44% 7.3 mph WSW11.7 kmh WSW 18.0 mph29.0 kmh 29.92 in1013.2 mb 0.00 in0.0 mm 0.00 in0.0 mm 0.02 in0.5 mm
07:40 PM 84.1°F28.9°C 61.7°F16.5°C 47% 9.9 mph SW15.9 kmh SW 19.0 mph30.6 kmh 29.93 in1013.5 mb 0.00 in0.0 mm 0.00 in0.0 mm 0.02 in0.5 mm
08:00 PM 82.9°F28.3°C 61.2°F16.2°C 48% 7.7 mph WSW12.4 kmh WSW 19.0 mph30.6 kmh 29.93 in1013.5 mb 0.00 in0.0 mm 0.00 in0.0 mm 0.02 in0.5 mm
08:20 PM 81.9°F27.7°C 61.4°F16.3°C 50% 8.3 mph WSW13.4 kmh WSW 16.0 mph25.7 kmh 29.94 in1013.9 mb 0.00 in0.0 mm 0.00 in0.0 mm 0.02 in0.5 mm
08:40 PM 80.8°F27.1°C 61.0°F16.1°C 51% 6.0 mph WSW9.7 kmh WSW 17.0 mph27.4 kmh 29.95 in1014.2 mb 0.00 in0.0 mm 0.00 in0.0 mm 0.02 in0.5 mm
09:00 PM 80.2°F26.8°C 61.5°F16.4°C 53% 4.8 mph WSW7.7 kmh WSW 10.0 mph16.1 kmh 29.95 in1014.2 mb 0.00 in0.0 mm 0.00 in0.0 mm 0.02 in0.5 mm
09:20 PM 79.3°F26.3°C 61.2°F16.2°C 54% 6.3 mph WSW10.1 kmh WSW 13.0 mph20.9 kmh 29.96 in1014.6 mb 0.00 in0.0 mm 0.00 in0.0 mm 0.02 in0.5 mm
09:40 PM 78.8°F26.0°C 61.3°F16.3°C 55% 5.0 mph W8.0 kmh W 13.0 mph20.9 kmh 29.97 in1014.9 mb 0.00 in0.0 mm 0.00 in0.0 mm 0.02 in0.5 mm
10:00 PM 78.1°F25.6°C 61.6°F16.4°C 57% 5.1 mph W8.2 kmh W 13.0 mph20.9 kmh 29.98 in1015.2 mb 0.00 in0.0 mm 0.00 in0.0 mm 0.02 in0.5 mm
10:20 PM 77.1°F25.1°C 61.7°F16.5°C 59% 6.5 mph WSW10.5 kmh WSW 13.0 mph20.9 kmh 29.98 in1015.2 mb 0.00 in0.0 mm 0.00 in0.0 mm 0.02 in0.5 mm
10:40 PM 76.4°F24.7°C 62.0°F16.7°C 61% 5.3 mph WNW8.5 kmh WNW 11.0 mph17.7 kmh 29.99 in1015.6 mb 0.00 in0.0 mm 0.00 in0.0 mm 0.02 in0.5 mm
11:00 PM 76.0°F24.4°C 61.6°F16.4°C 61% 3.4 mph WNW5.5 kmh WNW 11.0 mph17.7 kmh 30.00 in1015.9 mb 0.00 in0.0 mm 0.00 in0.0 mm 0.02 in0.5 mm
11:20 PM 76.1°F24.5°C 61.2°F16.2°C 60% 2.7 mph WSW4.3 kmh WSW 9.0 mph14.5 kmh 30.00 in1015.9 mb 0.00 in0.0 mm 0.00 in0.0 mm 0.02 in0.5 mm
11:40 PM 76.2°F24.6°C 60.8°F16.0°C 59% 2.0 mph WSW3.2 kmh WSW 9.0 mph14.5 kmh 30.00 in1015.9 mb 0.00 in0.0 mm 0.00 in0.0 mm 0.02 in0.5 mm